sensor_id;sensor_type;location;lat;lon;timestamp;P1;durP1;ratioP1;P2;durP2;ratioP2
14169;SDS011;63889;50.596;8.690;2022-10-24T02:41:53;17.48;;;6.75;;
14169;SDS011;63889;50.596;8.690;2022-10-24T02:44:20;15.98;;;7.07;;
14169;SDS011;63889;50.596;8.690;2022-10-24T02:46:49;19.30;;;5.97;;
14169;SDS011;63889;50.596;8.690;2022-10-24T02:49:18;20.33;;;6.88;;
14169;SDS011;63889;50.596;8.690;2022-10-24T02:51:44;16.50;;;6.50;;
14169;SDS011;63889;50.596;8.690;2022-10-24T02:54:11;16.15;;;6.28;;
14169;SDS011;63889;50.596;8.690;2022-10-24T02:56:42;15.68;;;6.47;;
14169;SDS011;63889;50.596;8.690;2022-10-24T02:59:11;17.48;;;6.25;;
14169;SDS011;63889;50.596;8.690;2022-10-24T03:01:36;14.40;;;6.50;;
14169;SDS011;63889;50.596;8.690;2022-10-24T03:04:02;15.77;;;6.85;;
14169;SDS011;63889;50.596;8.690;2022-10-24T03:06:28;16.55;;;7.00;;
14169;SDS011;63889;50.596;8.690;2022-10-24T03:08:53;19.30;;;7.20;;
14169;SDS011;63889;50.596;8.690;2022-10-24T03:11:19;21.35;;;8.02;;
14169;SDS011;63889;50.596;8.690;2022-10-24T03:13:44;12.88;;;6.57;;
14169;SDS011;63889;50.596;8.690;2022-10-24T03:16:10;23.77;;;8.38;;
14169;SDS011;63889;50.596;8.690;2022-10-24T03:18:35;17.98;;;7.85;;
14169;SDS011;63889;50.596;8.690;2022-10-24T03:21:01;13.85;;;6.85;;
14169;SDS011;63889;50.596;8.690;2022-10-24T03:23:27;14.48;;;6.97;;
14169;SDS011;63889;50.596;8.690;2022-10-24T03:25:56;15.55;;;5.97;;
14169;SDS011;63889;50.596;8.690;2022-10-24T03:28:22;20.17;;;6.65;;
14169;SDS011;63889;50.596;8.690;2022-10-24T03:30:48;15.45;;;7.25;;
14169;SDS011;63889;50.596;8.690;2022-10-24T03:33:14;15.73;;;6.43;;
14169;SDS011;63889;50.596;8.690;2022-10-24T03:35:40;12.85;;;6.40;;
14169;SDS011;63889;50.596;8.690;2022-10-24T03:38:06;15.63;;;6.53;;
14169;SDS011;63889;50.596;8.690;2022-10-24T03:40:32;15.30;;;7.22;;
14169;SDS011;63889;50.596;8.690;2022-10-24T03:42:58;15.40;;;5.95;;
14169;SDS011;63889;50.596;8.690;2022-10-24T03:45:24;19.67;;;6.57;;
14169;SDS011;63889;50.596;8.690;2022-10-24T03:47:50;18.08;;;5.13;;
14169;SDS011;63889;50.596;8.690;2022-10-24T03:50:15;15.60;;;5.20;;
14169;SDS011;63889;50.596;8.690;2022-10-24T03:52:41;10.32;;;4.35;;
14169;SDS011;63889;50.596;8.690;2022-10-24T03:55:06;17.30;;;5.38;;
14169;SDS011;63889;50.596;8.690;2022-10-24T03:57:32;13.57;;;4.88;;
14169;SDS011;63889;50.596;8.690;2022-10-24T03:59:58;12.23;;;4.40;;
14169;SDS011;63889;50.596;8.690;2022-10-24T04:02:24;10.35;;;3.72;;
14169;SDS011;63889;50.596;8.690;2022-10-24T04:04:49;9.60;;;3.72;;
14169;SDS011;63889;50.596;8.690;2022-10-24T04:07:15;10.73;;;3.50;;
14169;SDS011;63889;50.596;8.690;2022-10-24T04:09:40;10.70;;;4.05;;
14169;SDS011;63889;50.596;8.690;2022-10-24T04:12:06;11.93;;;3.53;;
14169;SDS011;63889;50.596;8.690;2022-10-24T04:14:31;18.20;;;4.32;;
14169;SDS011;63889;50.596;8.690;2022-10-24T04:16:57;12.63;;;4.30;;
14169;SDS011;63889;50.596;8.690;2022-10-24T04:19:23;9.18;;;4.45;;
14169;SDS011;63889;50.596;8.690;2022-10-24T04:21:48;12.30;;;4.47;;
14169;SDS011;63889;50.596;8.690;2022-10-24T04:24:14;12.35;;;4.55;;
14169;SDS011;63889;50.596;8.690;2022-10-24T04:26:40;16.17;;;4.07;;
14169;SDS011;63889;50.596;8.690;2022-10-24T04:29:06;19.90;;;4.13;;
14169;SDS011;63889;50.596;8.690;2022-10-24T04:31:31;17.05;;;3.80;;
14169;SDS011;63889;50.596;8.690;2022-10-24T04:33:57;14.98;;;4.20;;
14169;SDS011;63889;50.596;8.690;2022-10-24T04:36:22;17.77;;;3.88;;
14169;SDS011;63889;50.596;8.690;2022-10-24T04:38:48;19.95;;;4.32;;
14169;SDS011;63889;50.596;8.690;2022-10-24T04:41:13;15.68;;;4.40;;
14169;SDS011;63889;50.596;8.690;2022-10-24T04:43:39;13.38;;;3.60;;
14169;SDS011;63889;50.596;8.690;2022-10-24T04:46:05;15.23;;;4.55;;
14169;SDS011;63889;50.596;8.690;2022-10-24T04:48:30;8.10;;;3.55;;
14169;SDS011;63889;50.596;8.690;2022-10-24T04:50:56;12.18;;;4.25;;
14169;SDS011;63889;50.596;8.690;2022-10-24T04:53:22;12.15;;;5.32;;
14169;SDS011;63889;50.596;8.690;2022-10-24T04:55:48;13.85;;;3.65;;
14169;SDS011;63889;50.596;8.690;2022-10-24T04:58:13;13.32;;;5.15;;
14169;SDS011;63889;50.596;8.690;2022-10-24T05:00:39;14.95;;;4.00;;
14169;SDS011;63889;50.596;8.690;2022-10-24T05:03:07;13.15;;;3.72;;
14169;SDS011;63889;50.596;8.690;2022-10-24T05:05:32;18.45;;;3.85;;
14169;SDS011;63889;50.596;8.690;2022-10-24T05:07:58;10.32;;;4.28;;
14169;SDS011;63889;50.596;8.690;2022-10-24T05:10:24;18.50;;;5.43;;
14169;SDS011;63889;50.596;8.690;2022-10-24T05:12:49;11.70;;;3.45;;
14169;SDS011;63889;50.596;8.690;2022-10-24T05:15:26;12.88;;;3.60;;
14169;SDS011;63889;50.596;8.690;2022-10-24T05:17:53;17.52;;;3.67;;
14169;SDS011;63889;50.596;8.690;2022-10-24T05:20:20;18.77;;;4.45;;
14169;SDS011;63889;50.596;8.690;2022-10-24T05:22:45;20.98;;;3.40;;
14169;SDS011;63889;50.596;8.690;2022-10-24T05:25:11;15.95;;;3.78;;
14169;SDS011;63889;50.596;8.690;2022-10-24T05:27:37;11.00;;;3.78;;
14169;SDS011;63889;50.596;8.690;2022-10-24T05:30:02;20.65;;;3.85;;
14169;SDS011;63889;50.596;8.690;2022-10-24T05:32:29;11.30;;;3.78;;
14169;SDS011;63889;50.596;8.690;2022-10-24T05:34:54;12.02;;;3.35;;
14169;SDS011;63889;50.596;8.690;2022-10-24T05:37:20;15.55;;;4.53;;
14169;SDS011;63889;50.596;8.690;2022-10-24T05:39:45;10.07;;;3.65;;
14169;SDS011;63889;50.596;8.690;2022-10-24T05:42:11;22.13;;;4.35;;
14169;SDS011;63889;50.596;8.690;2022-10-24T05:44:37;14.52;;;4.47;;
14169;SDS011;63889;50.596;8.690;2022-10-24T05:47:02;13.75;;;3.55;;
14169;SDS011;63889;50.596;8.690;2022-10-24T05:49:28;10.77;;;3.45;;
14169;SDS011;63889;50.596;8.690;2022-10-24T05:51:53;13.55;;;3.28;;
14169;SDS011;63889;50.596;8.690;2022-10-24T05:54:19;20.25;;;4.38;;
14169;SDS011;63889;50.596;8.690;2022-10-24T05:56:45;17.70;;;4.18;;
14169;SDS011;63889;50.596;8.690;2022-10-24T05:59:10;16.08;;;3.78;;
14169;SDS011;63889;50.596;8.690;2022-10-24T06:01:36;18.30;;;3.92;;
14169;SDS011;63889;50.596;8.690;2022-10-24T06:04:01;15.27;;;3.75;;
14169;SDS011;63889;50.596;8.690;2022-10-24T06:06:27;13.73;;;4.45;;
14169;SDS011;63889;50.596;8.690;2022-10-24T06:08:53;11.95;;;3.72;;
14169;SDS011;63889;50.596;8.690;2022-10-24T06:11:18;16.50;;;3.78;;
14169;SDS011;63889;50.596;8.690;2022-10-24T06:13:44;27.40;;;4.47;;
14169;SDS011;63889;50.596;8.690;2022-10-24T06:16:10;16.80;;;3.63;;
14169;SDS011;63889;50.596;8.690;2022-10-24T06:18:37;14.07;;;3.50;;
14169;SDS011;63889;50.596;8.690;2022-10-24T06:21:04;12.93;;;3.65;;
14169;SDS011;63889;50.596;8.690;2022-10-24T06:23:32;11.68;;;3.72;;
14169;SDS011;63889;50.596;8.690;2022-10-24T06:25:57;11.63;;;3.75;;
14169;SDS011;63889;50.596;8.690;2022-10-24T06:28:23;11.98;;;3.65;;
14169;SDS011;63889;50.596;8.690;2022-10-24T06:30:49;8.57;;;3.50;;
14169;SDS011;63889;50.596;8.690;2022-10-24T06:33:15;10.32;;;3.78;;
14169;SDS011;63889;50.596;8.690;2022-10-24T06:35:41;14.55;;;3.28;;
14169;SDS011;63889;50.596;8.690;2022-10-24T06:38:07;15.90;;;3.50;;
14169;SDS011;63889;50.596;8.690;2022-10-24T06:40:33;11.27;;;3.20;;
14169;SDS011;63889;50.596;8.690;2022-10-24T06:43:01;14.85;;;3.70;;
14169;SDS011;63889;50.596;8.690;2022-10-24T06:45:27;10.05;;;3.88;;
14169;SDS011;63889;50.596;8.690;2022-10-24T06:47:52;15.82;;;3.53;;
14169;SDS011;63889;50.596;8.690;2022-10-24T06:50:18;13.68;;;3.58;;
14169;SDS011;63889;50.596;8.690;2022-10-24T06:52:44;9.45;;;3.80;;
14169;SDS011;63889;50.596;8.690;2022-10-24T06:55:09;26.45;;;4.22;;
14169;SDS011;63889;50.596;8.690;2022-10-24T06:57:35;16.83;;;4.22;;
14169;SDS011;63889;50.596;8.690;2022-10-24T07:00:00;13.35;;;3.67;;
14169;SDS011;63889;50.596;8.690;2022-10-24T07:02:26;10.90;;;4.00;;
14169;SDS011;63889;50.596;8.690;2022-10-24T07:04:51;14.43;;;3.28;;
14169;SDS011;63889;50.596;8.690;2022-10-24T07:07:18;16.05;;;3.47;;
14169;SDS011;63889;50.596;8.690;2022-10-24T07:09:49;17.00;;;3.90;;
14169;SDS011;63889;50.596;8.690;2022-10-24T07:12:18;12.85;;;3.53;;
14169;SDS011;63889;50.596;8.690;2022-10-24T07:14:44;11.93;;;3.53;;
14169;SDS011;63889;50.596;8.690;2022-10-24T07:17:09;14.90;;;3.60;;
14169;SDS011;63889;50.596;8.690;2022-10-24T07:19:35;15.68;;;3.60;;
14169;SDS011;63889;50.596;8.690;2022-10-24T07:22:00;16.67;;;3.65;;
14169;SDS011;63889;50.596;8.690;2022-10-24T07:24:26;13.80;;;3.10;;
14169;SDS011;63889;50.596;8.690;2022-10-24T07:26:52;20.02;;;3.72;;
14169;SDS011;63889;50.596;8.690;2022-10-24T07:29:18;10.40;;;3.45;;
14169;SDS011;63889;50.596;8.690;2022-10-24T07:31:44;9.98;;;2.85;;
14169;SDS011;63889;50.596;8.690;2022-10-24T07:34:11;13.40;;;3.22;;
14169;SDS011;63889;50.596;8.690;2022-10-24T07:36:37;9.07;;;2.78;;
14169;SDS011;63889;50.596;8.690;2022-10-24T07:39:02;11.77;;;3.88;;
14169;SDS011;63889;50.596;8.690;2022-10-24T07:41:29;13.82;;;3.20;;
14169;SDS011;63889;50.596;8.690;2022-10-24T07:43:56;17.05;;;3.90;;
14169;SDS011;63889;50.596;8.690;2022-10-24T07:46:23;12.77;;;2.95;;
14169;SDS011;63889;50.596;8.690;2022-10-24T07:48:50;13.43;;;2.88;;
14169;SDS011;63889;50.596;8.690;2022-10-24T07:51:16;11.63;;;3.38;;
14169;SDS011;63889;50.596;8.690;2022-10-24T07:53:42;17.58;;;3.92;;
14169;SDS011;63889;50.596;8.690;2022-10-24T07:56:09;11.85;;;3.00;;
14169;SDS011;63889;50.596;8.690;2022-10-24T07:58:38;10.82;;;3.08;;
14169;SDS011;63889;50.596;8.690;2022-10-24T08:01:04;14.55;;;2.95;;
14169;SDS011;63889;50.596;8.690;2022-10-24T08:03:34;12.60;;;3.07;;
14169;SDS011;63889;50.596;8.690;2022-10-24T08:06:03;12.75;;;3.30;;
14169;SDS011;63889;50.596;8.690;2022-10-24T08:08:31;13.45;;;4.10;;
14169;SDS011;63889;50.596;8.690;2022-10-24T08:10:56;10.07;;;2.85;;
14169;SDS011;63889;50.596;8.690;2022-10-24T08:13:22;8.68;;;2.67;;
14169;SDS011;63889;50.596;8.690;2022-10-24T08:15:47;12.65;;;3.53;;
14169;SDS011;63889;50.596;8.690;2022-10-24T08:18:13;15.50;;;3.85;;
14169;SDS011;63889;50.596;8.690;2022-10-24T08:20:39;7.95;;;3.47;;
14169;SDS011;63889;50.596;8.690;2022-10-24T08:23:04;12.13;;;3.40;;
14169;SDS011;63889;50.596;8.690;2022-10-24T08:25:30;11.48;;;3.08;;
14169;SDS011;63889;50.596;8.690;2022-10-24T08:27:55;13.32;;;3.17;;
14169;SDS011;63889;50.596;8.690;2022-10-24T08:30:21;12.48;;;3.88;;
14169;SDS011;63889;50.596;8.690;2022-10-24T08:32:47;12.23;;;3.35;;
14169;SDS011;63889;50.596;8.690;2022-10-24T08:35:16;13.43;;;3.42;;
14169;SDS011;63889;50.596;8.690;2022-10-24T08:37:43;14.73;;;3.28;;
14169;SDS011;63889;50.596;8.690;2022-10-24T08:40:13;11.05;;;3.35;;
14169;SDS011;63889;50.596;8.690;2022-10-24T08:42:41;15.00;;;3.08;;
14169;SDS011;63889;50.596;8.690;2022-10-24T08:45:12;9.35;;;3.15;;
14169;SDS011;63889;50.596;8.690;2022-10-24T08:48:00;14.45;;;3.38;;
14169;SDS011;63889;50.596;8.690;2022-10-24T08:50:33;11.68;;;3.25;;
14169;SDS011;63889;50.596;8.690;2022-10-24T08:55:47;12.98;;;2.97;;
14169;SDS011;63889;50.596;8.690;2022-10-24T08:58:16;14.18;;;3.08;;
14169;SDS011;63889;50.596;8.690;2022-10-24T09:00:44;21.98;;;2.65;;
14169;SDS011;63889;50.596;8.690;2022-10-24T09:03:23;8.48;;;3.03;;
14169;SDS011;63889;50.596;8.690;2022-10-24T09:06:46;10.57;;;3.28;;
14169;SDS011;63889;50.596;8.690;2022-10-24T09:25:03;16.30;;;3.08;;
14169;SDS011;63889;50.596;8.690;2022-10-24T09:34:34;7.47;;;2.93;;
14169;SDS011;63889;50.596;8.690;2022-10-24T09:37:00;13.77;;;3.83;;
14169;SDS011;63889;50.596;8.690;2022-10-24T09:39:32;14.27;;;2.83;;
14169;SDS011;63889;50.596;8.690;2022-10-24T09:42:00;7.15;;;2.50;;
14169;SDS011;63889;50.596;8.690;2022-10-24T09:44:29;12.32;;;3.13;;
14169;SDS011;63889;50.596;8.690;2022-10-24T09:47:02;16.98;;;3.20;;
14169;SDS011;63889;50.596;8.690;2022-10-24T09:49:34;17.33;;;3.85;;
14169;SDS011;63889;50.596;8.690;2022-10-24T09:52:18;15.43;;;2.45;;
14169;SDS011;63889;50.596;8.690;2022-10-24T09:55:03;10.57;;;2.20;;
14169;SDS011;63889;50.596;8.690;2022-10-24T09:57:40;12.68;;;2.42;;
14169;SDS011;63889;50.596;8.690;2022-10-24T10:00:06;13.48;;;2.75;;
14169;SDS011;63889;50.596;8.690;2022-10-24T10:02:55;15.88;;;2.97;;
14169;SDS011;63889;50.596;8.690;2022-10-24T10:05:22;13.27;;;2.72;;
14169;SDS011;63889;50.596;8.690;2022-10-24T10:07:48;7.97;;;2.47;;
14169;SDS011;63889;50.596;8.690;2022-10-24T10:13:20;11.60;;;2.30;;
14169;SDS011;63889;50.596;8.690;2022-10-24T10:15:52;9.60;;;2.20;;
14169;SDS011;63889;50.596;8.690;2022-10-24T10:20:45;10.77;;;2.60;;
14169;SDS011;63889;50.596;8.690;2022-10-24T10:23:29;13.43;;;2.42;;
14169;SDS011;63889;50.596;8.690;2022-10-24T10:29:08;16.30;;;2.17;;
14169;SDS011;63889;50.596;8.690;2022-10-24T10:31:47;8.43;;;2.35;;
14169;SDS011;63889;50.596;8.690;2022-10-24T10:34:40;15.52;;;2.13;;
14169;SDS011;63889;50.596;8.690;2022-10-24T10:37:24;12.77;;;2.63;;
14169;SDS011;63889;50.596;8.690;2022-10-24T10:47:47;7.72;;;2.17;;
14169;SDS011;63889;50.596;8.690;2022-10-24T10:50:27;5.28;;;1.40;;
14169;SDS011;63889;50.596;8.690;2022-10-24T11:00:00;8.10;;;1.30;;
14169;SDS011;63889;50.596;8.690;2022-10-24T11:07:58;5.75;;;1.92;;
14169;SDS011;63889;50.596;8.690;2022-10-24T11:10:48;7.25;;;2.25;;
14169;SDS011;63889;50.596;8.690;2022-10-24T11:13:22;6.80;;;2.60;;
14169;SDS011;63889;50.596;8.690;2022-10-24T11:18:50;5.97;;;2.42;;
14169;SDS011;63889;50.596;8.690;2022-10-24T11:21:18;14.23;;;2.65;;
14169;SDS011;63889;50.596;8.690;2022-10-24T11:24:03;6.72;;;1.55;;
14169;SDS011;63889;50.596;8.690;2022-10-24T11:26:39;6.80;;;1.60;;
14169;SDS011;63889;50.596;8.690;2022-10-24T11:29:27;9.80;;;1.93;;
14169;SDS011;63889;50.596;8.690;2022-10-24T11:32:20;8.57;;;1.63;;
14169;SDS011;63889;50.596;8.690;2022-10-24T11:35:28;10.27;;;1.90;;
14169;SDS011;63889;50.596;8.690;2022-10-24T11:38:13;5.25;;;1.50;;
14169;SDS011;63889;50.596;8.690;2022-10-24T11:40:42;6.30;;;1.90;;
14169;SDS011;63889;50.596;8.690;2022-10-24T11:43:20;7.75;;;1.77;;
14169;SDS011;63889;50.596;8.690;2022-10-24T11:46:00;7.43;;;1.75;;
14169;SDS011;63889;50.596;8.690;2022-10-24T11:48:39;13.23;;;2.25;;
14169;SDS011;63889;50.596;8.690;2022-10-24T11:51:12;8.63;;;1.75;;
14169;SDS011;63889;50.596;8.690;2022-10-24T11:53:51;6.55;;;1.95;;
14169;SDS011;63889;50.596;8.690;2022-10-24T11:59:09;8.77;;;1.75;;
14169;SDS011;63889;50.596;8.690;2022-10-24T12:01:43;14.23;;;2.05;;
14169;SDS011;63889;50.596;8.690;2022-10-24T12:13:48;4.10;;;1.75;;
14169;SDS011;63889;50.596;8.690;2022-10-24T12:19:04;4.72;;;1.88;;
14169;SDS011;63889;50.596;8.690;2022-10-24T12:21:39;4.00;;;1.77;;
14169;SDS011;63889;50.596;8.690;2022-10-24T12:24:18;6.03;;;1.50;;
14169;SDS011;63889;50.596;8.690;2022-10-24T12:27:39;9.15;;;1.60;;
14169;SDS011;63889;50.596;8.690;2022-10-24T12:30:01;6.00;;;1.55;;
14169;SDS011;63889;50.596;8.690;2022-10-24T12:32:43;7.20;;;1.80;;
14169;SDS011;63889;50.596;8.690;2022-10-24T12:37:54;7.70;;;2.20;;
14169;SDS011;63889;50.596;8.690;2022-10-24T12:43:12;4.85;;;1.70;;
14169;SDS011;63889;50.596;8.690;2022-10-24T12:45:40;10.80;;;2.10;;
14169;SDS011;63889;50.596;8.690;2022-10-24T12:48:25;12.20;;;2.38;;
14169;SDS011;63889;50.596;8.690;2022-10-24T12:50:55;11.07;;;2.08;;
14169;SDS011;63889;50.596;8.690;2022-10-24T12:53:37;13.40;;;2.63;;
14169;SDS011;63889;50.596;8.690;2022-10-24T12:56:23;9.35;;;2.63;;
14169;SDS011;63889;50.596;8.690;2022-10-24T12:58:56;12.98;;;2.13;;
14169;SDS011;63889;50.596;8.690;2022-10-24T13:01:42;3.72;;;1.60;;
14169;SDS011;63889;50.596;8.690;2022-10-24T13:04:24;4.97;;;1.80;;
14169;SDS011;63889;50.596;8.690;2022-10-24T13:20:25;3.75;;;1.20;;
14169;SDS011;63889;50.596;8.690;2022-10-24T13:23:12;6.25;;;1.30;;
14169;SDS011;63889;50.596;8.690;2022-10-24T13:25:39;9.32;;;1.20;;
14169;SDS011;63889;50.596;8.690;2022-10-24T13:30:46;6.03;;;1.00;;
14169;SDS011;63889;50.596;8.690;2022-10-24T13:41:19;4.85;;;2.15;;
14169;SDS011;63889;50.596;8.690;2022-10-24T13:44:08;5.38;;;1.40;;
14169;SDS011;63889;50.596;8.690;2022-10-24T13:46:53;4.95;;;1.00;;
14169;SDS011;63889;50.596;8.690;2022-10-24T13:49:29;5.82;;;0.90;;
14169;SDS011;63889;50.596;8.690;2022-10-24T13:52:02;3.80;;;0.85;;
14169;SDS011;63889;50.596;8.690;2022-10-24T13:55:30;8.07;;;1.42;;
14169;SDS011;63889;50.596;8.690;2022-10-24T13:57:53;3.15;;;0.93;;
14169;SDS011;63889;50.596;8.690;2022-10-24T14:00:32;2.92;;;0.75;;
14169;SDS011;63889;50.596;8.690;2022-10-24T14:03:04;3.92;;;1.13;;
14169;SDS011;63889;50.596;8.690;2022-10-24T14:05:44;4.93;;;0.80;;
14169;SDS011;63889;50.596;8.690;2022-10-24T14:08:22;6.50;;;0.75;;
14169;SDS011;63889;50.596;8.690;2022-10-24T14:11:01;6.60;;;0.93;;
14169;SDS011;63889;50.596;8.690;2022-10-24T14:13:29;3.78;;;0.90;;
14169;SDS011;63889;50.596;8.690;2022-10-24T14:16:02;3.88;;;1.08;;
14169;SDS011;63889;50.596;8.690;2022-10-24T14:18:30;7.00;;;1.10;;
14169;SDS011;63889;50.596;8.690;2022-10-24T14:20:58;4.97;;;1.40;;
14169;SDS011;63889;50.596;8.690;2022-10-24T14:23:27;2.78;;;0.95;;
14169;SDS011;63889;50.596;8.690;2022-10-24T14:28:26;2.88;;;0.93;;
14169;SDS011;63889;50.596;8.690;2022-10-24T14:31:01;5.80;;;1.20;;
14169;SDS011;63889;50.596;8.690;2022-10-24T14:33:30;4.82;;;1.00;;
14169;SDS011;63889;50.596;8.690;2022-10-24T14:35:58;6.00;;;1.48;;
14169;SDS011;63889;50.596;8.690;2022-10-24T14:38:26;8.63;;;1.45;;
14169;SDS011;63889;50.596;8.690;2022-10-24T14:40:53;4.50;;;1.00;;
14169;SDS011;63889;50.596;8.690;2022-10-24T14:43:26;3.80;;;1.00;;
14169;SDS011;63889;50.596;8.690;2022-10-24T14:48:37;5.60;;;0.82;;
14169;SDS011;63889;50.596;8.690;2022-10-24T14:51:06;6.20;;;1.45;;
14169;SDS011;63889;50.596;8.690;2022-10-24T14:53:40;5.43;;;1.20;;
14169;SDS011;63889;50.596;8.690;2022-10-24T14:58:57;10.20;;;1.80;;
14169;SDS011;63889;50.596;8.690;2022-10-24T15:01:25;5.65;;;2.10;;
14169;SDS011;63889;50.596;8.690;2022-10-24T15:03:53;4.40;;;1.55;;
14169;SDS011;63889;50.596;8.690;2022-10-24T15:06:37;10.90;;;1.70;;
14169;SDS011;63889;50.596;8.690;2022-10-24T15:11:40;5.90;;;1.20;;
14169;SDS011;63889;50.596;8.690;2022-10-24T15:16:54;12.48;;;1.58;;
14169;SDS011;63889;50.596;8.690;2022-10-24T15:19:20;4.50;;;0.90;;
14169;SDS011;63889;50.596;8.690;2022-10-24T15:21:46;3.35;;;1.23;;
14169;SDS011;63889;50.596;8.690;2022-10-24T15:24:22;5.65;;;0.82;;
14169;SDS011;63889;50.596;8.690;2022-10-24T15:26:50;4.13;;;0.88;;
14169;SDS011;63889;50.596;8.690;2022-10-24T15:29:20;2.50;;;0.98;;
14169;SDS011;63889;50.596;8.690;2022-10-24T15:31:47;5.50;;;1.08;;
14169;SDS011;63889;50.596;8.690;2022-10-24T15:34:21;4.90;;;1.20;;
14169;SDS011;63889;50.596;8.690;2022-10-24T15:36:49;8.25;;;0.80;;
14169;SDS011;63889;50.596;8.690;2022-10-24T15:39:16;8.60;;;1.77;;
14169;SDS011;63889;50.596;8.690;2022-10-24T15:41:44;13.32;;;1.20;;
14169;SDS011;63889;50.596;8.690;2022-10-24T15:44:17;9.50;;;1.35;;
14169;SDS011;63889;50.596;8.690;2022-10-24T15:46:44;3.83;;;1.15;;
14169;SDS011;63889;50.596;8.690;2022-10-24T15:49:11;4.63;;;1.20;;
14169;SDS011;63889;50.596;8.690;2022-10-24T15:51:37;4.15;;;1.73;;
14169;SDS011;63889;50.596;8.690;2022-10-24T15:54:04;11.50;;;1.52;;
14169;SDS011;63889;50.596;8.690;2022-10-24T15:56:30;10.98;;;1.27;;
14169;SDS011;63889;50.596;8.690;2022-10-24T15:58:56;6.40;;;1.20;;
14169;SDS011;63889;50.596;8.690;2022-10-24T16:01:29;6.32;;;1.40;;
14169;SDS011;63889;50.596;8.690;2022-10-24T16:03:57;3.08;;;0.88;;
14169;SDS011;63889;50.596;8.690;2022-10-24T16:06:23;4.88;;;0.88;;
14169;SDS011;63889;50.596;8.690;2022-10-24T16:08:49;8.50;;;1.13;;
14169;SDS011;63889;50.596;8.690;2022-10-24T16:11:16;6.70;;;1.00;;
14169;SDS011;63889;50.596;8.690;2022-10-24T16:13:41;5.78;;;1.10;;
14169;SDS011;63889;50.596;8.690;2022-10-24T16:16:07;3.20;;;1.05;;
14169;SDS011;63889;50.596;8.690;2022-10-24T16:18:32;6.10;;;0.88;;
14169;SDS011;63889;50.596;8.690;2022-10-24T16:20:58;3.50;;;0.90;;
14169;SDS011;63889;50.596;8.690;2022-10-24T16:23:24;7.22;;;1.25;;
14169;SDS011;63889;50.596;8.690;2022-10-24T16:25:50;7.30;;;1.35;;
14169;SDS011;63889;50.596;8.690;2022-10-24T16:28:16;7.57;;;1.00;;
14169;SDS011;63889;50.596;8.690;2022-10-24T16:30:43;5.63;;;0.73;;
14169;SDS011;63889;50.596;8.690;2022-10-24T16:33:10;7.38;;;1.73;;
14169;SDS011;63889;50.596;8.690;2022-10-24T16:35:36;8.00;;;1.25;;
14169;SDS011;63889;50.596;8.690;2022-10-24T16:38:04;9.45;;;1.33;;
14169;SDS011;63889;50.596;8.690;2022-10-24T16:40:35;2.85;;;1.05;;
14169;SDS011;63889;50.596;8.690;2022-10-24T16:43:02;5.82;;;1.10;;
14169;SDS011;63889;50.596;8.690;2022-10-24T16:45:28;3.25;;;0.80;;
14169;SDS011;63889;50.596;8.690;2022-10-24T16:47:54;10.43;;;1.95;;
14169;SDS011;63889;50.596;8.690;2022-10-24T16:50:21;2.10;;;0.80;;
14169;SDS011;63889;50.596;8.690;2022-10-24T16:52:52;7.32;;;1.20;;
14169;SDS011;63889;50.596;8.690;2022-10-24T16:55:19;5.80;;;1.00;;
14169;SDS011;63889;50.596;8.690;2022-10-24T16:57:45;4.97;;;1.55;;
14169;SDS011;63889;50.596;8.690;2022-10-24T17:00:12;7.05;;;1.58;;
14169;SDS011;63889;50.596;8.690;2022-10-24T17:02:40;3.65;;;1.40;;
14169;SDS011;63889;50.596;8.690;2022-10-24T17:05:10;9.38;;;1.48;;
14169;SDS011;63889;50.596;8.690;2022-10-24T17:07:36;6.57;;;1.13;;
14169;SDS011;63889;50.596;8.690;2022-10-24T17:10:02;4.30;;;1.13;;
14169;SDS011;63889;50.596;8.690;2022-10-24T17:12:28;9.25;;;1.15;;
14169;SDS011;63889;50.596;8.690;2022-10-24T17:14:53;5.68;;;1.08;;
14169;SDS011;63889;50.596;8.690;2022-10-24T17:17:19;4.60;;;1.35;;
14169;SDS011;63889;50.596;8.690;2022-10-24T17:19:44;9.70;;;1.38;;
14169;SDS011;63889;50.596;8.690;2022-10-24T17:22:12;11.40;;;1.40;;
14169;SDS011;63889;50.596;8.690;2022-10-24T17:24:38;7.65;;;1.00;;
14169;SDS011;63889;50.596;8.690;2022-10-24T17:27:08;3.20;;;0.90;;
14169;SDS011;63889;50.596;8.690;2022-10-24T17:29:35;11.52;;;1.33;;
14169;SDS011;63889;50.596;8.690;2022-10-24T17:32:01;5.63;;;1.13;;
14169;SDS011;63889;50.596;8.690;2022-10-24T17:34:27;4.80;;;1.05;;
14169;SDS011;63889;50.596;8.690;2022-10-24T17:36:56;5.18;;;1.00;;
14169;SDS011;63889;50.596;8.690;2022-10-24T17:39:46;3.47;;;1.15;;
14169;SDS011;63889;50.596;8.690;2022-10-24T17:42:14;5.53;;;1.38;;
14169;SDS011;63889;50.596;8.690;2022-10-24T17:44:40;3.45;;;0.85;;
14169;SDS011;63889;50.596;8.690;2022-10-24T17:47:06;5.57;;;1.05;;
14169;SDS011;63889;50.596;8.690;2022-10-24T17:49:32;7.97;;;1.02;;
14169;SDS011;63889;50.596;8.690;2022-10-24T17:51:57;5.70;;;1.10;;
14169;SDS011;63889;50.596;8.690;2022-10-24T17:54:23;5.80;;;1.38;;
14169;SDS011;63889;50.596;8.690;2022-10-24T17:56:48;7.95;;;1.23;;
14169;SDS011;63889;50.596;8.690;2022-10-24T17:59:14;10.98;;;1.48;;
14169;SDS011;63889;50.596;8.690;2022-10-24T18:01:40;10.07;;;1.15;;
14169;SDS011;63889;50.596;8.690;2022-10-24T18:04:06;9.43;;;1.20;;
14169;SDS011;63889;50.596;8.690;2022-10-24T18:06:31;9.90;;;1.48;;
14169;SDS011;63889;50.596;8.690;2022-10-24T18:08:57;8.57;;;1.38;;
14169;SDS011;63889;50.596;8.690;2022-10-24T18:11:23;8.32;;;1.83;;
14169;SDS011;63889;50.596;8.690;2022-10-24T18:13:49;10.35;;;1.27;;
14169;SDS011;63889;50.596;8.690;2022-10-24T18:16:15;6.95;;;1.73;;
14169;SDS011;63889;50.596;8.690;2022-10-24T18:18:43;5.97;;;2.00;;
14169;SDS011;63889;50.596;8.690;2022-10-24T18:21:28;8.65;;;1.30;;
14169;SDS011;63889;50.596;8.690;2022-10-24T18:23:54;5.28;;;1.10;;
14169;SDS011;63889;50.596;8.690;2022-10-24T18:26:21;2.67;;;0.85;;
14169;SDS011;63889;50.596;8.690;2022-10-24T18:28:49;8.15;;;1.50;;
14169;SDS011;63889;50.596;8.690;2022-10-24T18:31:16;5.90;;;1.33;;
14169;SDS011;63889;50.596;8.690;2022-10-24T18:33:43;8.52;;;0.90;;
14169;SDS011;63889;50.596;8.690;2022-10-24T18:36:11;8.90;;;1.80;;
14169;SDS011;63889;50.596;8.690;2022-10-24T18:38:38;5.57;;;1.33;;
14169;SDS011;63889;50.596;8.690;2022-10-24T18:47:01;7.88;;;1.00;;
14169;SDS011;63889;50.596;8.690;2022-10-24T18:49:29;4.03;;;0.82;;
14169;SDS011;63889;50.596;8.690;2022-10-24T18:54:34;8.18;;;1.25;;
14169;SDS011;63889;50.596;8.690;2022-10-24T18:57:01;12.60;;;1.23;;
14169;SDS011;63889;50.596;8.690;2022-10-24T18:59:38;6.40;;;1.50;;
14169;SDS011;63889;50.596;8.690;2022-10-24T19:02:10;7.95;;;0.93;;
14169;SDS011;63889;50.596;8.690;2022-10-24T19:04:50;7.18;;;1.00;;
14169;SDS011;63889;50.596;8.690;2022-10-24T19:07:21;2.90;;;0.88;;
14169;SDS011;63889;50.596;8.690;2022-10-24T19:09:47;7.53;;;1.45;;
14169;SDS011;63889;50.596;8.690;2022-10-24T19:12:12;9.07;;;1.08;;
14169;SDS011;63889;50.596;8.690;2022-10-24T19:14:38;2.67;;;0.98;;
14169;SDS011;63889;50.596;8.690;2022-10-24T19:17:04;5.70;;;1.40;;
14169;SDS011;63889;50.596;8.690;2022-10-24T19:19:30;9.73;;;0.88;;
14169;SDS011;63889;50.596;8.690;2022-10-24T19:22:00;5.22;;;1.25;;
14169;SDS011;63889;50.596;8.690;2022-10-24T19:24:25;6.10;;;1.33;;
14169;SDS011;63889;50.596;8.690;2022-10-24T19:26:51;4.68;;;1.25;;
14169;SDS011;63889;50.596;8.690;2022-10-24T19:29:16;3.03;;;0.82;;
14169;SDS011;63889;50.596;8.690;2022-10-24T19:31:42;5.60;;;0.80;;
14169;SDS011;63889;50.596;8.690;2022-10-24T19:34:09;4.22;;;1.00;;
14169;SDS011;63889;50.596;8.690;2022-10-24T19:36:35;8.93;;;1.40;;
14169;SDS011;63889;50.596;8.690;2022-10-24T19:39:01;8.23;;;1.25;;